createdAt,value
2023-02-03T00:02:09.941Z,100944.41
2023-02-03T00:04:36.756Z,100949.66
2023-02-03T00:07:04.274Z,100959.41
2023-02-03T00:09:31.258Z,100961.97
2023-02-03T00:11:58.318Z,100957.78
2023-02-03T00:14:25.103Z,100959.50
2023-02-03T00:16:52.173Z,100958.66
2023-02-03T00:19:18.952Z,100965.66
2023-02-03T00:21:46.184Z,100963.91
2023-02-03T00:24:13.014Z,100975.09
2023-02-03T00:26:43.751Z,100979.50
2023-02-03T00:29:10.849Z,100979.59
2023-02-03T00:31:38.001Z,100984.81
2023-02-03T00:34:04.805Z,100993.47
2023-02-03T00:36:31.901Z,100991.81
2023-02-03T00:39:00.766Z,100996.94
2023-02-03T00:41:31.548Z,100998.78
2023-02-03T00:43:58.537Z,101015.19
2023-02-03T00:46:25.607Z,101008.22
2023-02-03T00:48:52.381Z,101010.81
2023-02-03T00:51:19.504Z,101012.56
2023-02-03T00:53:47.174Z,101014.28
2023-02-03T00:56:14.365Z,101010.88
2023-02-03T00:58:41.404Z,101021.34
2023-02-03T01:01:08.649Z,101018.72
2023-02-03T01:03:35.694Z,101027.44
2023-02-03T01:06:13.361Z,101037.88
2023-02-03T01:08:40.200Z,101033.66
2023-02-03T01:11:13.391Z,101037.03
2023-02-03T01:13:40.722Z,101039.75
2023-02-03T01:16:12.440Z,101041.41
2023-02-03T01:18:40.167Z,101037.03
2023-02-03T01:21:12.791Z,101040.59
2023-02-03T01:23:39.896Z,101046.72
2023-02-03T01:26:11.016Z,101048.50
2023-02-03T01:28:38.505Z,101046.75
2023-02-03T01:31:14.067Z,101043.25
2023-02-03T01:33:41.318Z,101051.97
2023-02-03T01:36:10.016Z,101052.81
2023-02-03T01:38:38.528Z,101049.34
2023-02-03T01:41:09.684Z,101059.78
2023-02-03T01:43:38.877Z,101064.13
2023-02-03T01:46:35.529Z,101057.16
2023-02-03T01:49:12.042Z,101066.72
2023-02-03T01:51:42.141Z,101068.34
2023-02-03T01:54:31.610Z,101070.16
2023-02-03T01:57:11.843Z,101074.47
2023-02-03T01:59:38.744Z,101074.44
2023-02-03T02:02:07.146Z,101071.03
2023-02-03T02:05:08.833Z,101074.50
2023-02-03T02:07:37.779Z,101076.34
2023-02-03T02:10:05.807Z,101073.75
2023-02-03T02:12:33.180Z,101072.94
2023-02-03T02:15:00.359Z,101082.41
2023-02-03T02:17:49.246Z,101070.97
2023-02-03T02:20:20.754Z,101069.41
2023-02-03T02:23:23.113Z,101079.81
2023-02-03T02:25:55.832Z,101074.50
2023-02-03T02:28:50.665Z,101071.13
2023-02-03T02:31:45.576Z,101072.09
2023-02-03T02:34:12.656Z,101072.22
2023-02-03T02:36:49.151Z,101070.47
2023-02-03T02:39:46.748Z,101067.94
2023-02-03T02:42:23.628Z,101077.41
2023-02-03T02:44:56.312Z,101073.97
2023-02-03T02:47:24.091Z,101077.47
2023-02-03T02:49:51.087Z,101081.78
2023-02-03T02:52:20.000Z,101079.22
2023-02-03T02:54:52.591Z,101083.44
2023-02-03T02:57:21.665Z,101087.75
2023-02-03T02:59:48.908Z,101084.34
2023-02-03T03:02:15.791Z,101086.88
2023-02-03T03:04:46.761Z,101091.22
2023-02-03T03:07:28.017Z,101088.59
2023-02-03T03:10:06.903Z,101095.59
2023-02-03T03:12:41.932Z,101091.22
2023-02-03T03:15:14.444Z,101104.31
2023-02-03T03:17:45.526Z,101099.16
2023-02-03T03:20:19.644Z,101098.25
2023-02-03T03:22:49.852Z,101093.88
2023-02-03T03:25:18.321Z,101092.09
2023-02-03T03:27:48.626Z,101091.31
2023-02-03T03:30:18.445Z,101092.22
2023-02-03T03:32:45.131Z,101092.25
2023-02-03T03:35:12.525Z,101081.00
2023-02-03T03:37:43.941Z,101077.59
2023-02-03T03:40:14.007Z,101077.56
2023-02-03T03:42:57.326Z,101075.88
2023-02-03T03:45:33.164Z,101068.13
2023-02-03T03:48:08.584Z,101066.41
2023-02-03T03:50:38.502Z,101072.34
2023-02-03T03:53:06.046Z,101068.06
2023-02-03T03:55:35.580Z,101065.50
2023-02-03T03:58:04.983Z,101061.22
2023-02-03T04:00:33.621Z,101069.84
2023-02-03T04:03:02.257Z,101068.06
2023-02-03T04:05:29.232Z,101066.28
2023-02-03T04:07:55.878Z,101060.31
2023-02-03T04:10:30.498Z,101060.28
2023-02-03T04:12:57.115Z,101049.03
2023-02-03T04:15:24.000Z,101049.03
2023-02-03T04:17:50.589Z,101062.94
2023-02-03T04:20:24.045Z,101058.59
2023-02-03T04:22:50.981Z,101045.66
2023-02-03T04:25:17.914Z,101049.91
2023-02-03T04:27:44.785Z,101053.38
2023-02-03T04:30:12.546Z,101054.22
2023-02-03T04:32:39.270Z,101055.09
2023-02-03T04:35:07.008Z,101052.50
2023-02-03T04:37:34.024Z,101046.47
2023-02-03T04:40:00.983Z,101050.78
2023-02-03T04:42:27.931Z,101060.31
2023-02-03T04:44:54.823Z,101061.94
2023-02-03T04:47:21.443Z,101061.03
2023-02-03T04:49:48.425Z,101052.28
2023-02-03T04:52:15.402Z,101038.44
2023-02-03T04:54:42.332Z,101036.69
2023-02-03T04:57:09.017Z,101044.44
2023-02-03T04:59:35.935Z,101045.28
2023-02-03T05:02:04.143Z,101047.00
2023-02-03T05:04:31.516Z,101040.06
2023-02-03T05:06:58.142Z,101036.59
2023-02-03T05:09:25.384Z,101039.16
2023-02-03T05:11:52.380Z,101042.66
2023-02-03T05:14:19.836Z,101038.31
2023-02-03T05:16:46.606Z,101032.31
2023-02-03T05:19:13.540Z,101038.34
2023-02-03T05:21:40.214Z,101037.47
2023-02-03T05:24:08.025Z,101040.81
2023-02-03T05:26:35.554Z,101053.72
2023-02-03T05:29:02.626Z,101054.56
2023-02-03T05:31:29.354Z,101054.56
2023-02-03T05:33:56.249Z,101050.16
2023-02-03T05:36:22.842Z,101049.22
2023-02-03T05:38:49.807Z,101044.03
2023-02-03T05:41:35.212Z,101058.81
2023-02-03T05:44:02.106Z,101056.22
2023-02-03T05:46:28.731Z,101058.00
2023-02-03T05:48:55.632Z,101067.44
2023-02-03T05:51:22.235Z,101062.31
2023-02-03T05:53:49.145Z,101061.44
2023-02-03T05:56:15.804Z,101063.94
2023-02-03T05:58:42.709Z,101066.56
2023-02-03T06:01:09.329Z,101076.13
2023-02-03T06:03:36.271Z,101068.44
2023-02-03T06:06:03.336Z,101059.78
2023-02-03T06:08:30.201Z,101056.38
2023-02-03T06:11:02.519Z,101047.66
2023-02-03T06:13:29.480Z,101054.59
2023-02-03T06:15:56.357Z,101052.84
2023-02-03T06:18:23.580Z,101051.16
2023-02-03T06:20:50.647Z,101056.31
2023-02-03T06:23:19.035Z,101074.50
2023-02-03T06:25:48.264Z,101067.63
2023-02-03T06:28:15.363Z,101074.47
2023-02-03T06:30:42.634Z,101072.72
2023-02-03T06:33:09.360Z,101073.66
2023-02-03T06:35:36.429Z,101072.69
2023-02-03T06:38:03.079Z,101068.44
2023-02-03T06:40:30.429Z,101065.69
2023-02-03T06:42:57.315Z,101077.06
2023-02-03T06:45:24.963Z,101074.44
2023-02-03T06:47:51.730Z,101077.00
2023-02-03T06:50:19.014Z,101078.69
2023-02-03T06:52:45.645Z,101077.59
2023-02-03T06:55:12.544Z,101069.66
2023-02-03T06:57:46.811Z,101066.88
2023-02-03T07:00:17.490Z,101073.81
2023-02-03T07:02:45.558Z,101069.66
2023-02-03T07:05:12.567Z,101072.16
2023-02-03T07:07:39.570Z,101066.13
2023-02-03T07:10:06.849Z,101070.47
2023-02-03T07:12:33.489Z,101067.94
2023-02-03T07:15:00.429Z,101064.41
2023-02-03T07:17:27.198Z,101063.44
2023-02-03T07:19:54.077Z,101065.25
2023-02-03T07:22:20.672Z,101068.66
2023-02-03T07:24:47.595Z,101060.81
2023-02-03T07:27:14.231Z,101065.97
2023-02-03T07:29:41.127Z,101064.19
2023-02-03T07:32:07.843Z,101061.66
2023-02-03T07:34:34.759Z,101065.91
2023-02-03T07:37:02.074Z,101066.88
2023-02-03T07:39:29.026Z,101072.84
2023-02-03T07:41:55.682Z,101064.97
2023-02-03T07:44:22.917Z,101073.69
2023-02-03T07:46:49.531Z,101080.69
2023-02-03T07:49:16.511Z,101080.63
2023-02-03T07:51:43.102Z,101085.88
2023-02-03T07:54:10.059Z,101084.09
2023-02-03T07:56:36.695Z,101084.19
2023-02-03T07:59:03.625Z,101081.63
2023-02-03T08:01:31.432Z,101085.03
2023-02-03T08:03:58.388Z,101091.88
2023-02-03T08:06:25.031Z,101091.84
2023-02-03T08:08:51.984Z,101085.69
2023-02-03T08:11:18.627Z,101090.81
2023-02-03T08:13:45.526Z,101083.81
2023-02-03T08:16:12.145Z,101088.19
2023-02-03T08:18:39.076Z,101088.84
2023-02-03T08:21:05.773Z,101098.59
2023-02-03T08:23:32.806Z,101089.78
2023-02-03T08:25:59.421Z,101084.78
2023-02-03T08:28:26.484Z,101093.44
2023-02-03T08:30:53.148Z,101090.00
2023-02-03T08:33:20.169Z,101097.66
2023-02-03T08:35:50.459Z,101098.59
2023-02-03T08:38:17.489Z,101105.34
2023-02-03T08:40:44.132Z,101101.69
2023-02-03T08:43:14.189Z,101107.06
2023-02-03T08:45:40.881Z,101108.78
2023-02-03T08:48:07.839Z,101106.19
2023-02-03T08:50:34.481Z,101109.13
2023-02-03T08:53:01.422Z,101103.84
2023-02-03T08:55:28.064Z,101104.72
2023-02-03T08:57:55.297Z,101103.19
2023-02-03T09:00:22.106Z,101107.31
2023-02-03T09:02:49.125Z,101107.75
2023-02-03T09:05:17.909Z,101107.97
2023-02-03T09:07:45.047Z,101107.94
2023-02-03T09:10:11.723Z,101105.31
2023-02-03T09:12:38.804Z,101096.25
2023-02-03T09:15:05.821Z,101096.09
2023-02-03T09:17:32.809Z,101090.78
2023-02-03T09:19:59.612Z,101102.75
2023-02-03T09:22:26.562Z,101103.59
2023-02-03T09:24:53.272Z,101104.13
2023-02-03T09:27:20.223Z,101103.75
2023-02-03T09:29:46.852Z,101099.41
2023-02-03T09:32:15.770Z,101090.25
2023-02-03T09:34:42.572Z,101091.06
2023-02-03T09:37:09.529Z,101093.94
2023-02-03T09:39:36.173Z,101094.00
2023-02-03T09:42:09.026Z,101079.47
2023-02-03T09:44:44.224Z,101078.59
2023-02-03T09:47:14.338Z,101067.44
2023-02-03T09:49:40.925Z,101063.78
2023-02-03T09:52:24.907Z,101056.06
2023-02-03T09:54:57.455Z,101049.13
2023-02-03T09:57:25.774Z,101052.59
2023-02-03T09:59:54.537Z,101039.66
2023-02-03T10:02:30.732Z,101026.53
2023-02-03T10:04:57.408Z,101025.59
2023-02-03T10:07:39.705Z,101025.44
2023-02-03T10:10:18.905Z,101005.25
2023-02-03T10:13:01.108Z,100997.53
2023-02-03T10:15:46.559Z,100992.59
2023-02-03T10:18:15.156Z,100994.31
2023-02-03T10:20:44.997Z,100982.00
2023-02-03T10:23:20.313Z,100980.44
2023-02-03T10:25:57.297Z,100969.16
2023-02-03T10:28:26.692Z,100961.34
2023-02-03T10:30:57.337Z,100956.88
2023-02-03T10:33:28.372Z,100952.41
2023-02-03T10:36:01.292Z,100945.59
2023-02-03T10:38:31.192Z,100949.19
2023-02-03T10:40:57.880Z,100946.41
2023-02-03T10:43:43.384Z,100938.66
2023-02-03T10:46:10.067Z,100930.94
2023-02-03T10:48:37.292Z,100921.34
2023-02-03T10:51:04.356Z,100916.31
2023-02-03T10:53:35.563Z,100918.84
2023-02-03T10:56:08.360Z,100917.06
2023-02-03T10:58:37.097Z,100910.94
2023-02-03T11:01:13.790Z,100898.75
2023-02-03T11:04:00.597Z,100900.47
2023-02-03T11:06:27.647Z,100890.16
2023-02-03T11:08:55.042Z,100885.69
2023-02-03T11:11:24.490Z,100882.44
2023-02-03T11:14:03.973Z,100872.03
2023-02-03T11:16:32.179Z,100862.44
2023-02-03T11:19:03.330Z,100848.69
2023-02-03T11:21:39.369Z,100859.84
2023-02-03T11:24:06.404Z,100845.00
2023-02-03T11:26:35.929Z,100844.06
2023-02-03T11:29:04.351Z,100845.03
2023-02-03T11:31:37.965Z,100838.13
2023-02-03T11:34:15.527Z,100820.97
2023-02-03T11:36:42.178Z,100817.66
2023-02-03T11:39:29.415Z,100813.44
2023-02-03T11:41:56.720Z,100815.34
2023-02-03T11:44:29.597Z,100805.94
2023-02-03T11:46:58.726Z,100792.66
2023-02-03T11:49:31.788Z,100789.13
2023-02-03T11:51:58.368Z,100783.13
2023-02-03T11:54:25.256Z,100767.66
2023-02-03T11:57:18.316Z,100770.53
2023-02-03T12:00:10.844Z,100762.75
2023-02-03T12:02:58.356Z,100754.75
2023-02-03T12:05:44.329Z,100744.59
2023-02-03T12:08:29.273Z,100742.59
2023-02-03T12:11:14.759Z,100725.38
2023-02-03T12:13:59.924Z,100717.91
2023-02-03T12:16:45.563Z,100714.44
2023-02-03T12:19:38.819Z,100704.88
2023-02-03T12:22:11.868Z,100689.94
2023-02-03T12:24:56.700Z,100693.34
2023-02-03T12:27:38.044Z,100688.09
2023-02-03T12:30:24.993Z,100676.25
2023-02-03T12:32:55.242Z,100662.41
2023-02-03T12:35:27.714Z,100651.31
2023-02-03T12:38:12.604Z,100640.59
2023-02-03T12:40:47.690Z,100642.44
2023-02-03T12:43:28.110Z,100632.72
2023-02-03T12:45:57.173Z,100623.31
2023-02-03T12:48:33.662Z,100619.91
2023-02-03T12:51:02.493Z,100608.72
2023-02-03T12:53:39.992Z,100600.97
2023-02-03T12:56:12.034Z,100589.56
2023-02-03T12:59:14.043Z,100590.25
2023-02-03T13:01:44.686Z,100578.78
2023-02-03T13:04:18.703Z,100572.13
2023-02-03T13:06:48.306Z,100559.88
2023-02-03T13:09:15.471Z,100559.09
2023-02-03T13:11:54.134Z,100558.47
2023-02-03T13:14:28.304Z,100553.00
2023-02-03T13:16:57.400Z,100545.22
2023-02-03T13:19:27.318Z,100536.59
2023-02-03T13:21:54.035Z,100528.72
2023-02-03T13:24:23.454Z,100529.53
2023-02-03T13:26:54.107Z,100537.41
2023-02-03T13:29:30.027Z,100521.84
2023-02-03T13:32:02.907Z,100512.81
2023-02-03T13:34:39.038Z,100510.53
2023-02-03T13:37:31.612Z,100505.28
2023-02-03T13:40:14.632Z,100508.78
2023-02-03T13:42:52.946Z,100482.25
2023-02-03T13:45:32.158Z,100480.59
2023-02-03T13:48:22.552Z,100479.53
2023-02-03T13:50:51.227Z,100473.69
2023-02-03T13:53:19.322Z,100471.22
2023-02-03T13:55:53.475Z,100462.47
2023-02-03T13:58:22.021Z,100448.38
2023-02-03T14:00:51.834Z,100449.91
2023-02-03T14:03:38.795Z,100450.50
2023-02-03T14:06:11.683Z,100445.41
2023-02-03T14:08:38.289Z,100438.44
2023-02-03T14:11:23.859Z,100446.06
2023-02-03T14:13:51.320Z,100440.88
2023-02-03T14:16:24.935Z,100433.28
2023-02-03T14:18:51.678Z,100428.28
2023-02-03T14:21:21.019Z,100422.03
2023-02-03T14:23:55.479Z,100416.16
2023-02-03T14:26:25.580Z,100418.84
2023-02-03T14:28:53.929Z,100403.16
2023-02-03T14:31:22.544Z,100403.19
2023-02-03T14:33:49.316Z,100400.59
2023-02-03T14:36:45.860Z,100398.88
2023-02-03T14:39:18.798Z,100395.19
2023-02-03T14:41:57.813Z,100394.22
2023-02-03T14:44:33.308Z,100385.88
2023-02-03T14:47:03.241Z,100386.69
2023-02-03T14:49:29.829Z,100367.59
2023-02-03T14:52:19.052Z,100373.50
2023-02-03T14:54:55.256Z,100367.59
2023-02-03T14:57:40.575Z,100366.56
2023-02-03T15:00:07.639Z,100374.19
2023-02-03T15:02:34.727Z,100357.44
2023-02-03T15:05:13.427Z,100363.50
2023-02-03T15:07:46.305Z,100355.69
2023-02-03T15:10:18.924Z,100343.81
2023-02-03T15:12:56.226Z,100339.94
2023-02-03T15:15:22.975Z,100337.94
2023-02-03T15:17:51.434Z,100324.28
2023-02-03T15:20:26.113Z,100319.53
2023-02-03T15:22:53.076Z,100327.94
2023-02-03T15:25:21.988Z,100327.28
2023-02-03T15:27:49.030Z,100316.13
2023-02-03T15:30:17.040Z,100304.81
2023-02-03T15:32:50.099Z,100310.94
2023-02-03T15:35:18.887Z,100299.47
2023-02-03T15:37:58.338Z,100293.63
2023-02-03T15:40:30.751Z,100290.66
2023-02-03T15:42:57.890Z,100294.09
2023-02-03T15:45:30.679Z,100288.19
2023-02-03T15:48:01.453Z,100290.38
2023-02-03T15:50:36.007Z,100286.06
2023-02-03T15:53:22.444Z,100275.28
2023-02-03T15:55:54.875Z,100278.94
2023-02-03T15:58:24.732Z,100269.22
2023-02-03T16:00:56.026Z,100271.94
2023-02-03T16:03:28.167Z,100256.50
2023-02-03T16:05:55.257Z,100264.97
2023-02-03T16:08:34.810Z,100264.06
2023-02-03T16:11:01.676Z,100266.91
2023-02-03T16:13:29.921Z,100265.84
2023-02-03T16:16:08.425Z,100267.84
2023-02-03T16:18:36.763Z,100257.59
2023-02-03T16:21:06.573Z,100264.63
2023-02-03T16:23:33.542Z,100248.09
2023-02-03T16:26:02.975Z,100238.66
2023-02-03T16:28:48.802Z,100236.22
2023-02-03T16:31:40.300Z,100230.25
2023-02-03T16:34:35.928Z,100219.00
2023-02-03T16:37:29.958Z,100211.38
2023-02-03T16:40:15.576Z,100212.03
2023-02-03T16:43:00.998Z,100199.78
2023-02-03T16:45:46.694Z,100190.38
2023-02-03T16:48:32.081Z,100194.88
2023-02-03T16:51:03.736Z,100178.31
2023-02-03T16:53:31.240Z,100182.38
2023-02-03T16:56:01.837Z,100163.06
2023-02-03T16:58:28.688Z,100159.66
2023-02-03T17:00:57.505Z,100147.47
2023-02-03T17:03:25.753Z,100142.13
2023-02-03T17:05:53.369Z,100134.03
2023-02-03T17:08:21.616Z,100123.84
2023-02-03T17:10:49.460Z,100118.34
2023-02-03T17:13:17.802Z,100109.34
2023-02-03T17:15:48.768Z,100110.47
2023-02-03T17:18:15.651Z,100110.91
2023-02-03T17:20:43.543Z,100093.72
2023-02-03T17:23:10.546Z,100092.44
2023-02-03T17:25:38.218Z,100096.31
2023-02-03T17:28:08.733Z,100072.06
2023-02-03T17:30:36.251Z,100090.19
2023-02-03T17:33:04.238Z,100075.97
2023-02-03T17:35:31.630Z,100087.88
2023-02-03T17:37:58.521Z,100077.25
2023-02-03T17:54:11.088Z,100055.78
2023-02-03T17:56:38.036Z,100058.09
2023-02-03T17:59:05.202Z,100044.19
2023-02-03T18:01:32.262Z,100055.34
2023-02-03T18:04:00.523Z,100059.56
2023-02-03T18:06:28.440Z,100050.66
2023-02-03T18:09:01.052Z,100045.09
2023-02-03T18:11:31.315Z,100046.09
2023-02-03T18:13:57.950Z,100034.72
2023-02-03T18:16:27.957Z,100024.03
2023-02-03T18:18:55.394Z,100020.84
2023-02-03T18:21:23.480Z,100021.72
2023-02-03T18:23:51.139Z,100010.53
2023-02-03T18:26:20.972Z,100012.25
2023-02-03T18:28:50.576Z,99996.66
2023-02-03T18:31:17.715Z,99996.22
2023-02-03T18:33:46.206Z,99995.94
2023-02-03T18:36:13.778Z,100004.56
2023-02-03T18:38:41.996Z,99989.75
2023-02-03T18:41:11.517Z,99983.50
2023-02-03T18:43:38.127Z,99996.41
2023-02-03T18:46:15.809Z,99998.19
2023-02-03T18:48:42.483Z,100010.09
2023-02-03T18:51:10.205Z,100005.94
2023-02-03T18:53:38.326Z,100010.53
2023-02-03T18:56:06.305Z,100030.94
2023-02-03T18:58:33.017Z,100031.69
2023-02-03T19:01:00.639Z,100017.94
2023-02-03T19:03:27.858Z,100016.84
2023-02-03T19:05:54.908Z,100029.38
2023-02-03T19:08:21.534Z,100038.00
2023-02-03T19:10:52.696Z,100014.94
2023-02-03T19:13:19.894Z,99996.03
2023-02-03T19:15:47.664Z,99957.13
2023-02-03T19:18:15.461Z,99975.69
2023-02-03T19:20:42.929Z,99972.63
2023-02-03T19:23:10.921Z,99981.63
2023-02-03T19:25:38.249Z,99975.13
2023-02-03T19:28:05.896Z,99984.09
2023-02-03T19:30:33.723Z,99989.06
2023-02-03T19:33:00.435Z,99985.56
2023-02-03T19:35:27.386Z,99982.50
2023-02-03T19:37:54.074Z,99978.81
2023-02-03T19:40:21.029Z,99975.69
2023-02-03T19:42:49.032Z,99972.50
2023-02-03T19:45:15.958Z,99976.31
2023-02-03T19:47:42.754Z,99968.41
2023-02-03T19:50:10.056Z,99979.38
2023-02-03T19:52:36.703Z,99983.75
2023-02-03T19:55:03.938Z,99965.03
2023-02-03T19:57:30.581Z,99965.28
2023-02-03T19:59:57.648Z,99973.41
2023-02-03T20:02:26.159Z,99969.38
2023-02-03T20:04:53.292Z,99970.53
2023-02-03T20:07:20.342Z,99979.81
2023-02-03T20:09:48.001Z,99972.06
2023-02-03T20:12:14.642Z,99970.41
2023-02-03T20:14:44.529Z,99975.75
2023-02-03T20:17:11.315Z,99965.84
2023-02-03T20:19:38.229Z,99958.16
2023-02-03T20:22:04.914Z,99949.34
2023-02-03T20:24:31.880Z,99953.56
2023-02-03T20:26:58.527Z,99953.88
2023-02-03T20:29:25.464Z,99946.03
2023-02-03T20:31:54.302Z,99970.44
2023-02-03T20:34:21.370Z,99965.22
2023-02-03T20:36:48.029Z,99952.41
2023-02-03T20:39:19.165Z,99956.00
2023-02-03T20:41:45.858Z,99959.53
2023-02-03T20:44:13.349Z,99951.91
2023-02-03T20:46:40.856Z,99950.16
2023-02-03T20:49:14.989Z,99936.28
2023-02-03T20:51:42.118Z,99939.41
2023-02-03T20:54:14.524Z,99940.16
2023-02-03T20:56:44.582Z,99932.09
2023-02-03T20:59:18.413Z,99922.19
2023-02-03T21:01:45.762Z,99916.88
2023-02-03T21:04:34.582Z,99937.09
2023-02-03T21:07:06.544Z,99943.09
2023-02-03T21:09:33.200Z,99924.72
2023-02-03T21:12:00.122Z,99934.13
2023-02-03T21:14:36.020Z,99942.53
2023-02-03T21:17:02.933Z,99941.69
2023-02-03T21:19:31.645Z,99952.94
2023-02-03T21:21:58.673Z,99950.19
2023-02-03T21:24:25.463Z,99958.72
2023-02-03T21:26:52.757Z,99970.00
2023-02-03T21:29:24.290Z,99981.34
2023-02-03T21:31:52.120Z,99981.25
2023-02-03T21:34:27.796Z,99979.44
2023-02-03T21:36:55.850Z,99991.41
2023-02-03T21:39:33.012Z,99995.09
2023-02-03T21:42:16.870Z,100014.34
2023-02-03T21:44:44.228Z,100006.94
2023-02-03T21:47:15.996Z,100008.56
2023-02-03T21:49:42.610Z,100009.03
2023-02-03T21:52:15.484Z,99994.47
2023-02-03T21:54:44.237Z,99997.69
2023-02-03T21:57:17.639Z,100007.34
2023-02-03T21:59:47.276Z,99997.69
2023-02-03T22:02:38.487Z,100003.13
2023-02-03T22:05:05.299Z,99999.03
2023-02-03T22:07:32.211Z,100005.00
2023-02-03T22:09:58.882Z,100003.47
2023-02-03T22:12:25.780Z,100007.03
2023-02-03T22:14:52.363Z,99994.25
2023-02-03T22:17:19.235Z,99999.03
2023-02-03T22:19:45.828Z,99995.31
2023-02-03T22:22:12.817Z,100028.94
2023-02-03T22:24:39.474Z,100031.25
2023-02-03T22:27:06.590Z,100026.38
2023-02-03T22:29:33.395Z,100033.34
2023-02-03T22:32:00.513Z,100031.38
2023-02-03T22:34:27.402Z,100040.97
2023-02-03T22:36:54.319Z,100046.34
2023-02-03T22:39:20.958Z,100066.34
2023-02-03T22:41:47.861Z,100066.00
2023-02-03T22:44:16.188Z,100070.44
2023-02-03T22:46:43.112Z,100063.75
2023-02-03T22:49:10.522Z,100064.38
2023-02-03T22:51:37.532Z,100060.22
2023-02-03T22:54:04.227Z,100067.28
2023-02-03T22:56:31.105Z,100067.75
2023-02-03T22:58:57.794Z,100076.44
2023-02-03T23:01:24.661Z,100070.38
2023-02-03T23:03:51.288Z,100052.88
2023-02-03T23:06:18.213Z,100058.25
2023-02-03T23:08:44.872Z,100053.09
2023-02-03T23:11:11.770Z,100048.72
2023-02-03T23:13:38.339Z,100036.06
2023-02-03T23:16:05.491Z,100039.19
2023-02-03T23:18:32.109Z,100036.03
2023-02-03T23:20:59.062Z,100033.91
2023-02-03T23:23:25.660Z,100031.25
2023-02-03T23:25:52.573Z,100027.72
2023-02-03T23:28:19.330Z,100024.34
2023-02-03T23:30:46.323Z,100031.16
2023-02-03T23:33:12.971Z,100013.81
2023-02-03T23:35:45.611Z,100008.22
2023-02-03T23:38:16.230Z,100008.16
2023-02-03T23:40:43.383Z,100004.34
2023-02-03T23:43:10.200Z,99989.06
2023-02-03T23:45:37.215Z,99994.78
2023-02-03T23:48:04.260Z,99989.00
2023-02-03T23:50:31.482Z,100001.03
2023-02-03T23:52:58.542Z,99995.44
2023-02-03T23:55:25.490Z,99990.72
2023-02-03T23:57:52.136Z,99989.25
